createdAt,value
2022-08-28T00:00:25.765Z,3.05
2022-08-28T00:02:53.380Z,2.90
2022-08-28T00:05:22.126Z,2.90
2022-08-28T00:07:49.182Z,2.83
2022-08-28T00:10:18.007Z,2.80
2022-08-28T00:12:47.040Z,3.20
2022-08-28T00:15:17.513Z,2.90
2022-08-28T00:17:44.836Z,3.35
2022-08-28T00:20:14.099Z,3.10
2022-08-28T00:22:41.618Z,3.30
2022-08-28T00:25:11.004Z,3.20
2022-08-28T00:27:53.404Z,3.50
2022-08-28T00:30:24.784Z,3.15
2022-08-28T00:32:53.606Z,3.50
2022-08-28T00:35:21.788Z,3.37
2022-08-28T00:37:48.455Z,3.30
2022-08-28T00:40:19.964Z,3.60
2022-08-28T00:42:58.493Z,4.28
2022-08-28T00:45:26.623Z,3.30
2022-08-28T00:47:53.273Z,3.30
2022-08-28T00:50:23.911Z,3.45
2022-08-28T00:52:55.567Z,3.67
2022-08-28T00:55:24.895Z,3.80
2022-08-28T00:57:56.540Z,3.50
2022-08-28T01:00:35.399Z,3.45
2022-08-28T01:03:03.332Z,3.60
2022-08-28T01:05:30.173Z,3.60
2022-08-28T01:07:58.888Z,3.70
2022-08-28T01:10:30.658Z,3.30
2022-08-28T01:12:57.925Z,3.22
2022-08-28T01:15:32.397Z,3.55
2022-08-28T01:18:07.849Z,3.40
2022-08-28T01:20:38.101Z,3.70
2022-08-28T01:23:53.197Z,3.58
2022-08-28T01:26:20.465Z,3.60
2022-08-28T01:28:47.505Z,3.33
2022-08-28T01:31:16.038Z,3.22
2022-08-28T01:33:44.779Z,3.40
2022-08-28T01:36:12.785Z,3.65
2022-08-28T01:38:42.491Z,3.42
2022-08-28T01:41:09.275Z,4.00
2022-08-28T01:43:36.626Z,3.30
2022-08-28T01:46:05.790Z,3.40
2022-08-28T01:48:36.212Z,3.70
2022-08-28T01:51:05.207Z,3.38
2022-08-28T01:53:32.612Z,3.38
2022-08-28T01:56:02.966Z,3.70
2022-08-28T01:58:34.928Z,3.55
2022-08-28T02:01:17.040Z,3.78
2022-08-28T02:03:43.925Z,3.63
2022-08-28T02:06:11.139Z,3.45
2022-08-28T02:08:37.749Z,4.10
2022-08-28T02:11:08.163Z,3.45
2022-08-28T02:13:39.975Z,3.80
2022-08-28T02:16:09.258Z,3.40
2022-08-28T02:18:37.873Z,3.03
2022-08-28T02:21:06.475Z,3.53
2022-08-28T02:23:33.698Z,3.67
2022-08-28T02:26:00.572Z,3.55
2022-08-28T02:28:27.390Z,3.20
2022-08-28T02:30:53.970Z,3.40
2022-08-28T02:33:20.993Z,3.45
2022-08-28T02:35:47.650Z,3.42
2022-08-28T02:38:14.224Z,3.40
2022-08-28T02:40:41.327Z,3.53
2022-08-28T02:43:07.927Z,3.63
2022-08-28T02:45:34.971Z,3.60
2022-08-28T02:48:02.076Z,3.60
2022-08-28T02:50:31.049Z,3.78
2022-08-28T02:52:57.987Z,3.67
2022-08-28T02:55:25.876Z,3.30
2022-08-28T02:57:54.572Z,4.10
2022-08-28T03:00:25.759Z,3.75
2022-08-28T03:02:53.224Z,3.53
2022-08-28T03:05:23.405Z,3.53
2022-08-28T03:07:51.231Z,3.58
2022-08-28T03:10:18.651Z,3.35
2022-08-28T03:12:45.445Z,3.80
2022-08-28T03:15:12.473Z,3.38
2022-08-28T03:17:39.168Z,3.33
2022-08-28T03:20:08.800Z,3.50
2022-08-28T03:22:54.079Z,4.00
2022-08-28T03:25:22.286Z,3.70
2022-08-28T03:27:49.639Z,3.50
2022-08-28T03:30:17.495Z,3.47
2022-08-28T03:32:44.086Z,3.70
2022-08-28T03:35:11.970Z,4.00
2022-08-28T03:37:39.027Z,3.75
2022-08-28T03:40:07.702Z,3.42
2022-08-28T03:42:35.146Z,3.63
2022-08-28T03:45:02.155Z,3.63
2022-08-28T03:47:29.626Z,3.88
2022-08-28T03:49:57.759Z,3.30
2022-08-28T03:52:24.890Z,3.58
2022-08-28T03:54:52.495Z,3.53
2022-08-28T03:57:20.677Z,3.92
2022-08-28T03:59:48.822Z,3.50
2022-08-28T04:02:15.559Z,3.90
2022-08-28T04:04:42.120Z,4.47
2022-08-28T04:07:08.734Z,4.40
2022-08-28T04:09:35.305Z,3.72
2022-08-28T04:12:02.072Z,3.63
2022-08-28T04:14:28.729Z,3.67
2022-08-28T04:16:59.698Z,3.90
2022-08-28T04:19:27.918Z,3.95
2022-08-28T04:21:54.446Z,3.80
2022-08-28T04:24:21.607Z,3.83
2022-08-28T04:26:48.549Z,3.78
2022-08-28T04:29:16.034Z,4.20
2022-08-28T04:31:42.833Z,3.65
2022-08-28T04:34:10.442Z,3.83
2022-08-28T04:36:38.169Z,4.22
2022-08-28T04:39:08.499Z,3.75
2022-08-28T04:41:37.527Z,4.10
2022-08-28T04:44:05.519Z,3.87
2022-08-28T04:46:32.337Z,4.10
2022-08-28T04:48:59.469Z,4.20
2022-08-28T04:51:26.625Z,3.67
2022-08-28T04:53:53.211Z,3.80
2022-08-28T04:56:19.793Z,4.13
2022-08-28T04:58:46.344Z,4.00
2022-08-28T05:01:18.639Z,4.00
2022-08-28T05:03:47.261Z,4.10
2022-08-28T05:06:15.796Z,3.80
2022-08-28T05:08:42.694Z,3.70
2022-08-28T05:11:33.616Z,3.67
2022-08-28T05:14:04.494Z,3.67
2022-08-28T05:16:32.099Z,3.83
2022-08-28T05:19:03.473Z,3.85
2022-08-28T05:21:30.111Z,3.95
2022-08-28T05:23:57.878Z,4.03
2022-08-28T05:26:27.242Z,4.10
2022-08-28T05:28:57.224Z,3.80
2022-08-28T05:31:25.212Z,3.88
2022-08-28T05:33:53.030Z,3.85
2022-08-28T05:36:22.855Z,3.60
2022-08-28T05:38:51.327Z,3.90
2022-08-28T05:41:28.343Z,3.83
2022-08-28T05:43:54.936Z,4.10
2022-08-28T05:46:22.322Z,3.90
2022-08-28T05:48:49.620Z,3.67
2022-08-28T05:51:20.093Z,4.00
2022-08-28T05:53:50.288Z,4.05
2022-08-28T05:56:19.770Z,4.32
2022-08-28T05:58:46.490Z,4.25
2022-08-28T06:01:16.647Z,3.85
2022-08-28T06:03:47.532Z,4.07
2022-08-28T06:06:14.103Z,4.20
2022-08-28T06:08:58.073Z,3.75
2022-08-28T06:11:26.867Z,4.50
2022-08-28T06:13:53.469Z,3.85
2022-08-28T06:16:21.160Z,4.10
2022-08-28T06:18:47.952Z,4.18
2022-08-28T06:21:14.568Z,3.70
2022-08-28T06:23:41.199Z,3.67
2022-08-28T06:26:07.807Z,3.67
2022-08-28T06:28:34.426Z,4.00
2022-08-28T06:31:23.784Z,4.00
2022-08-28T06:33:50.343Z,3.83
2022-08-28T06:36:17.085Z,3.90
2022-08-28T06:38:46.595Z,4.07
2022-08-28T06:41:14.589Z,3.67
2022-08-28T06:43:41.477Z,4.00
2022-08-28T06:46:08.633Z,4.03
2022-08-28T06:48:35.310Z,4.28
2022-08-28T06:51:06.850Z,3.92
2022-08-28T06:53:33.584Z,3.92
2022-08-28T06:56:06.466Z,3.90
2022-08-28T06:58:34.180Z,3.42
2022-08-28T07:01:03.197Z,3.90
2022-08-28T07:03:33.217Z,3.95
2022-08-28T07:06:01.412Z,3.90
2022-08-28T07:08:29.348Z,3.80
2022-08-28T07:10:58.075Z,3.78
2022-08-28T07:13:25.783Z,4.25
2022-08-28T07:15:52.434Z,4.15
2022-08-28T07:18:19.343Z,4.25
2022-08-28T07:20:54.353Z,3.80
2022-08-28T07:23:20.936Z,4.00
2022-08-28T07:25:47.562Z,4.10
2022-08-28T07:28:14.435Z,4.20
2022-08-28T07:30:41.115Z,4.13
2022-08-28T07:33:08.064Z,3.83
2022-08-28T07:35:34.702Z,4.18
2022-08-28T07:38:01.236Z,3.72
2022-08-28T07:40:27.884Z,3.88
2022-08-28T07:43:12.851Z,3.55
2022-08-28T07:45:39.520Z,3.78
2022-08-28T07:48:11.345Z,3.80
2022-08-28T07:50:38.603Z,3.70
2022-08-28T07:53:08.122Z,3.28
2022-08-28T07:55:34.750Z,2.88
2022-08-28T07:58:02.269Z,2.70
2022-08-28T08:00:28.831Z,2.58
2022-08-28T08:02:55.349Z,2.67
2022-08-28T08:05:21.971Z,3.00
2022-08-28T08:07:48.522Z,2.58
2022-08-28T08:10:15.167Z,2.80
2022-08-28T08:12:47.275Z,2.78
2022-08-28T08:15:13.889Z,2.20
2022-08-28T08:17:40.649Z,2.88
2022-08-28T08:20:08.578Z,2.60
2022-08-28T08:22:35.865Z,2.60
2022-08-28T08:25:05.062Z,2.60
2022-08-28T08:27:38.797Z,2.58
2022-08-28T08:30:08.258Z,2.30
2022-08-28T08:32:34.856Z,2.38
2022-08-28T08:35:01.771Z,2.47
2022-08-28T08:37:28.338Z,2.40
2022-08-28T08:39:55.167Z,2.35
2022-08-28T08:42:27.782Z,1.98
2022-08-28T08:44:58.929Z,2.22
2022-08-28T08:47:47.594Z,2.10
2022-08-28T08:50:28.978Z,1.98
2022-08-28T08:53:19.352Z,1.92
2022-08-28T08:55:52.620Z,1.70
2022-08-28T08:58:31.583Z,2.10
2022-08-28T09:01:20.443Z,1.73
2022-08-28T09:06:59.530Z,1.90
2022-08-28T09:09:37.383Z,1.70
2022-08-28T09:12:07.973Z,1.65
2022-08-28T09:14:34.708Z,1.50
2022-08-28T09:17:01.675Z,1.55
2022-08-28T09:19:29.498Z,1.70
2022-08-28T09:21:56.412Z,1.80
2022-08-28T09:24:26.720Z,1.70
2022-08-28T09:27:05.928Z,1.80
2022-08-28T09:29:39.957Z,1.70
2022-08-28T09:32:25.893Z,1.98
2022-08-28T09:35:22.694Z,1.60
2022-08-28T09:37:49.293Z,2.10
2022-08-28T09:40:50.856Z,2.00
2022-08-28T09:43:26.700Z,1.90
2022-08-28T09:46:01.321Z,2.00
2022-08-28T09:48:39.922Z,2.20
2022-08-28T09:51:14.062Z,2.13
2022-08-28T09:54:21.894Z,2.08
2022-08-28T09:56:50.043Z,2.22
2022-08-28T09:59:19.281Z,2.30
2022-08-28T10:02:10.480Z,2.25
2022-08-28T10:04:50.058Z,2.25
2022-08-28T10:07:49.369Z,2.85
2022-08-28T10:10:53.696Z,2.40
2022-08-28T10:13:31.196Z,2.13
2022-08-28T10:16:37.533Z,2.50
2022-08-28T10:19:33.638Z,2.40
2022-08-28T10:22:21.205Z,2.20
2022-08-28T10:25:07.632Z,2.00
2022-08-28T10:27:54.690Z,2.30
2022-08-28T10:30:24.222Z,2.45
2022-08-28T10:32:59.997Z,2.72
2022-08-28T10:35:49.266Z,2.00
2022-08-28T10:38:19.741Z,2.30
2022-08-28T10:40:55.310Z,2.50
2022-08-28T10:43:43.598Z,2.65
2022-08-28T10:46:23.065Z,2.30
2022-08-28T10:49:01.161Z,2.47
2022-08-28T10:51:35.393Z,2.30
2022-08-28T10:54:37.200Z,2.20
2022-08-28T10:57:10.999Z,2.10
2022-08-28T10:59:41.914Z,2.10
2022-08-28T11:02:13.616Z,2.22
2022-08-28T11:04:40.588Z,2.17
2022-08-28T11:07:11.389Z,2.25
2022-08-28T11:09:46.014Z,2.35
2022-08-28T11:12:19.699Z,2.40
2022-08-28T11:14:49.545Z,2.22
2022-08-28T11:17:22.117Z,1.90
2022-08-28T11:19:57.878Z,1.77
2022-08-28T11:22:36.730Z,2.13
2022-08-28T11:25:13.881Z,1.90
2022-08-28T11:28:00.689Z,2.00
2022-08-28T11:30:34.080Z,1.80
2022-08-28T11:33:03.660Z,1.70
2022-08-28T11:35:30.161Z,2.20
2022-08-28T11:37:58.391Z,1.80
2022-08-28T11:40:28.022Z,1.60
2022-08-28T11:43:29.914Z,1.60
2022-08-28T11:45:56.460Z,2.00
2022-08-28T11:48:23.273Z,1.50
2022-08-28T11:50:54.880Z,1.50
2022-08-28T11:53:39.303Z,1.80
2022-08-28T11:56:33.287Z,1.27
2022-08-28T11:59:13.986Z,1.60
2022-08-28T12:01:40.691Z,1.50
2022-08-28T12:04:15.232Z,1.50
2022-08-28T12:06:45.019Z,1.40
2022-08-28T12:09:31.221Z,1.73
2022-08-28T12:12:05.235Z,1.33
2022-08-28T12:14:41.051Z,1.80
2022-08-28T12:17:30.498Z,1.60
2022-08-28T12:20:28.391Z,1.90
2022-08-28T12:22:59.038Z,1.67
2022-08-28T12:25:33.633Z,1.77
2022-08-28T12:28:07.960Z,1.63
2022-08-28T12:31:05.678Z,1.70
2022-08-28T12:33:49.713Z,1.95
2022-08-28T12:36:17.469Z,1.70
2022-08-28T12:38:50.873Z,1.85
2022-08-28T12:41:18.483Z,1.60
2022-08-28T12:43:50.496Z,1.60
2022-08-28T12:46:28.780Z,1.80
2022-08-28T12:49:01.222Z,1.70
2022-08-28T12:51:31.386Z,1.73
2022-08-28T12:54:04.019Z,1.80
2022-08-28T12:56:34.444Z,1.60
2022-08-28T12:59:35.604Z,1.90
2022-08-28T13:02:10.547Z,1.63
2022-08-28T13:04:51.924Z,1.70
2022-08-28T13:07:26.121Z,1.90
2022-08-28T13:09:55.037Z,1.80
2022-08-28T13:12:54.777Z,1.60
2022-08-28T13:15:42.766Z,1.70
2022-08-28T13:18:09.808Z,1.58
2022-08-28T13:20:38.075Z,1.63
2022-08-28T13:23:05.347Z,1.63
2022-08-28T13:25:35.837Z,1.63
2022-08-28T13:28:14.545Z,1.60
2022-08-28T13:30:41.379Z,1.70
2022-08-28T13:33:21.756Z,2.05
2022-08-28T13:35:49.069Z,1.85
2022-08-28T13:38:21.207Z,1.60
2022-08-28T13:40:58.803Z,1.77
2022-08-28T13:43:28.535Z,1.58
2022-08-28T13:48:24.833Z,1.90
2022-08-28T13:51:07.559Z,1.98
2022-08-28T13:53:38.625Z,2.13
2022-08-28T13:56:06.283Z,2.00
2022-08-28T13:58:33.141Z,1.98
2022-08-28T14:01:00.529Z,1.92
2022-08-28T14:03:37.495Z,2.03
2022-08-28T14:06:14.148Z,1.90
2022-08-28T14:08:43.281Z,2.20
2022-08-28T14:11:13.098Z,2.00
2022-08-28T14:13:41.053Z,2.10
2022-08-28T14:16:16.766Z,2.50
2022-08-28T14:18:43.448Z,2.33
2022-08-28T14:21:10.011Z,2.60
2022-08-28T14:23:36.609Z,2.55
2022-08-28T14:26:05.460Z,2.42
2022-08-28T14:28:32.511Z,2.30
2022-08-28T14:30:59.117Z,2.50
2022-08-28T14:33:25.919Z,2.25
2022-08-28T14:35:52.952Z,2.20
2022-08-28T14:38:19.556Z,2.25
2022-08-28T14:40:46.261Z,2.25
2022-08-28T14:43:14.645Z,2.25
2022-08-28T14:45:49.966Z,2.50
2022-08-28T14:48:18.740Z,2.00
2022-08-28T14:50:49.145Z,2.17
2022-08-28T14:53:16.997Z,2.60
2022-08-28T14:55:49.390Z,2.45
2022-08-28T14:58:17.574Z,2.30
2022-08-28T15:00:48.098Z,2.08
2022-08-28T15:03:15.964Z,2.60
2022-08-28T15:05:42.888Z,2.28
2022-08-28T15:08:11.435Z,2.47
2022-08-28T15:10:39.482Z,2.23
2022-08-28T15:13:07.675Z,2.20
2022-08-28T15:18:02.924Z,2.60
2022-08-28T15:20:29.909Z,2.20
2022-08-28T15:22:56.570Z,2.60
2022-08-28T15:25:23.331Z,2.72
2022-08-28T15:27:49.967Z,2.58
2022-08-28T15:30:16.551Z,3.63
2022-08-28T15:32:46.096Z,2.33
2022-08-28T15:35:12.732Z,2.47
2022-08-28T15:37:39.739Z,2.63
2022-08-28T15:40:25.624Z,2.58
2022-08-28T15:42:52.488Z,2.58
2022-08-28T15:45:20.152Z,2.55
2022-08-28T15:47:46.861Z,2.60
2022-08-28T15:50:16.038Z,2.88
2022-08-28T15:52:46.789Z,2.50
2022-08-28T15:55:13.786Z,2.58
2022-08-28T15:57:40.439Z,2.50
2022-08-28T16:00:10.332Z,2.20
2022-08-28T16:02:38.315Z,2.20
2022-08-28T16:05:06.056Z,2.35
2022-08-28T16:07:32.832Z,2.42
2022-08-28T16:09:59.410Z,2.58
2022-08-28T16:12:26.389Z,2.60
2022-08-28T16:14:53.132Z,2.25
2022-08-28T16:17:20.017Z,2.50
2022-08-28T16:19:46.746Z,2.45
2022-08-28T16:22:15.889Z,2.70
2022-08-28T16:24:43.108Z,2.50
2022-08-28T16:27:14.620Z,2.60
2022-08-28T16:29:42.021Z,2.55
2022-08-28T16:32:09.479Z,2.80
2022-08-28T16:34:38.954Z,2.85
2022-08-28T16:37:07.833Z,3.10
2022-08-28T16:39:35.425Z,2.72
2022-08-28T16:42:02.096Z,3.15
2022-08-28T16:44:28.740Z,3.22
2022-08-28T16:46:56.389Z,3.00
2022-08-28T16:49:23.748Z,3.00
2022-08-28T16:51:50.510Z,2.90
2022-08-28T16:54:21.417Z,3.17
2022-08-28T16:56:48.173Z,3.10
2022-08-28T16:59:23.472Z,3.40
2022-08-28T17:01:53.139Z,3.20
2022-08-28T17:04:21.219Z,2.70
2022-08-28T17:06:47.844Z,3.20
2022-08-28T17:09:14.546Z,3.13
2022-08-28T17:11:41.088Z,3.00
2022-08-28T17:14:09.086Z,3.42
2022-08-28T17:16:35.753Z,3.30
2022-08-28T17:19:02.716Z,3.30
2022-08-28T17:21:47.944Z,3.42
2022-08-28T17:24:14.843Z,3.60
2022-08-28T17:26:42.384Z,3.35
2022-08-28T17:29:09.511Z,3.50
2022-08-28T17:31:36.884Z,3.30
2022-08-28T17:34:03.779Z,3.45
2022-08-28T17:36:33.959Z,4.10
2022-08-28T17:39:08.060Z,3.67
2022-08-28T17:41:35.517Z,4.20
2022-08-28T17:44:04.951Z,4.10
2022-08-28T17:46:37.517Z,4.00
2022-08-28T17:49:05.884Z,4.20
2022-08-28T17:51:42.685Z,4.35
2022-08-28T17:54:15.608Z,4.70
2022-08-28T17:56:42.558Z,3.95
2022-08-28T17:59:10.132Z,4.30
2022-08-28T18:01:38.407Z,4.68
2022-08-28T18:04:05.519Z,4.90
2022-08-28T18:06:34.840Z,4.57
2022-08-28T18:09:01.609Z,4.80
2022-08-28T18:11:29.111Z,4.95
2022-08-28T18:13:55.765Z,4.90
2022-08-28T18:16:23.825Z,4.80
2022-08-28T18:21:19.196Z,5.28
2022-08-28T18:23:46.336Z,5.10
2022-08-28T18:26:13.458Z,5.70
2022-08-28T18:28:40.391Z,5.47
2022-08-28T18:31:07.856Z,5.45
2022-08-28T18:33:37.112Z,5.57
2022-08-28T18:36:08.839Z,5.45
2022-08-28T18:38:35.635Z,5.88
2022-08-28T18:41:04.249Z,5.85
2022-08-28T18:43:31.418Z,6.00
2022-08-28T18:46:00.416Z,6.47
2022-08-28T18:48:31.542Z,6.65
2022-08-28T18:50:58.232Z,6.00
2022-08-28T18:53:25.103Z,5.82
2022-08-28T18:55:53.828Z,7.07
2022-08-28T18:58:22.059Z,6.50
2022-08-28T19:00:49.454Z,5.38
2022-08-28T19:03:18.763Z,5.90
2022-08-28T19:05:45.397Z,5.28
2022-08-28T19:08:14.114Z,5.65
2022-08-28T19:10:41.512Z,5.70
2022-08-28T19:13:08.579Z,5.15
2022-08-28T19:18:11.273Z,4.85
2022-08-28T19:20:37.865Z,5.05
2022-08-28T19:23:07.182Z,4.93
2022-08-28T19:25:33.784Z,5.43
2022-08-28T19:28:01.682Z,4.82
2022-08-28T19:30:32.821Z,5.05
2022-08-28T19:33:00.908Z,5.28
2022-08-28T19:35:27.653Z,4.95
2022-08-28T19:37:54.404Z,4.65
2022-08-28T19:40:22.195Z,5.20
2022-08-28T19:42:54.301Z,5.30
2022-08-28T19:45:21.282Z,5.10
2022-08-28T19:47:48.249Z,4.82
2022-08-28T19:50:15.801Z,5.47
2022-08-28T19:52:46.424Z,5.13
2022-08-28T19:55:22.164Z,4.82
2022-08-28T19:57:49.308Z,5.03
2022-08-28T20:00:31.794Z,5.25
2022-08-28T20:02:59.368Z,4.68
2022-08-28T20:05:26.099Z,5.32
2022-08-28T20:07:52.750Z,5.30
2022-08-28T20:10:19.553Z,4.90
2022-08-28T20:12:48.357Z,4.90
2022-08-28T20:15:17.183Z,4.75
2022-08-28T20:17:49.525Z,4.85
2022-08-28T20:20:18.854Z,4.68
2022-08-28T20:22:45.567Z,4.90
2022-08-28T20:25:12.310Z,4.50
2022-08-28T20:27:41.701Z,4.25
2022-08-28T20:30:11.158Z,5.10
2022-08-28T20:35:08.744Z,4.85
2022-08-28T20:37:41.047Z,4.30
2022-08-28T20:40:18.316Z,4.72
2022-08-28T20:42:47.692Z,4.53
2022-08-28T20:45:15.951Z,4.85
2022-08-28T20:47:43.428Z,4.20
2022-08-28T20:50:11.212Z,4.20
2022-08-28T20:52:38.518Z,3.70
2022-08-28T20:55:07.641Z,3.95
2022-08-28T20:57:35.238Z,3.58
2022-08-28T21:00:05.787Z,3.95
2022-08-28T21:02:33.084Z,4.07
2022-08-28T21:05:00.806Z,4.00
2022-08-28T21:07:27.905Z,4.03
2022-08-28T21:10:05.633Z,4.10
2022-08-28T21:12:38.865Z,3.95
2022-08-28T21:15:08.417Z,4.63
2022-08-28T21:17:35.586Z,4.88
2022-08-28T21:20:09.217Z,4.57
2022-08-28T21:22:37.508Z,4.45
2022-08-28T21:25:09.573Z,4.82
2022-08-28T21:27:38.091Z,4.43
2022-08-28T21:30:06.437Z,4.90
2022-08-28T21:32:34.080Z,4.45
2022-08-28T21:35:02.392Z,4.60
2022-08-28T21:37:29.432Z,4.70
2022-08-28T21:39:59.148Z,4.50
2022-08-28T21:42:26.883Z,4.38
2022-08-28T21:44:54.625Z,4.90
2022-08-28T21:47:23.096Z,4.70
2022-08-28T21:49:51.700Z,4.75
2022-08-28T21:52:19.686Z,4.55
2022-08-28T21:54:46.582Z,4.47
2022-08-28T21:57:13.575Z,4.53
2022-08-28T21:59:40.524Z,4.88
2022-08-28T22:02:07.476Z,4.53
2022-08-28T22:04:34.881Z,4.60
2022-08-28T22:07:02.103Z,4.90
2022-08-28T22:09:29.148Z,4.70
2022-08-28T22:11:56.112Z,4.57
2022-08-28T22:14:25.122Z,4.40
2022-08-28T22:16:52.269Z,4.68
2022-08-28T22:19:19.508Z,4.90
2022-08-28T22:22:04.506Z,4.82
2022-08-28T22:24:31.377Z,5.00
2022-08-28T22:26:58.307Z,4.57
2022-08-28T22:29:25.677Z,4.90
2022-08-28T22:31:53.008Z,5.40
2022-08-28T22:34:20.206Z,4.88
2022-08-28T22:36:47.115Z,4.82
2022-08-28T22:39:14.198Z,5.05
2022-08-28T22:41:42.061Z,5.00
2022-08-28T22:44:09.965Z,4.97
2022-08-28T22:46:36.834Z,5.25
2022-08-28T22:49:04.228Z,5.03
2022-08-28T22:51:33.569Z,4.68
2022-08-28T22:54:00.367Z,5.35
2022-08-28T22:56:27.043Z,4.57
2022-08-28T22:58:53.817Z,4.93
2022-08-28T23:01:24.252Z,5.15
2022-08-28T23:03:51.338Z,5.13
2022-08-28T23:06:18.743Z,5.05
2022-08-28T23:08:45.425Z,4.82
2022-08-28T23:11:12.142Z,5.03
2022-08-28T23:13:39.274Z,4.78
2022-08-28T23:16:06.150Z,4.80
2022-08-28T23:19:03.908Z,4.90
2022-08-28T23:21:26.423Z,5.00
2022-08-28T23:23:55.055Z,4.82
2022-08-28T23:26:22.725Z,5.07
2022-08-28T23:28:49.377Z,4.47
2022-08-28T23:31:16.125Z,4.60
2022-08-28T23:33:43.300Z,4.72
2022-08-28T23:36:10.537Z,4.70
2022-08-28T23:38:40.784Z,4.57
2022-08-28T23:41:10.836Z,4.75
2022-08-28T23:43:38.275Z,4.50
2022-08-28T23:46:06.440Z,4.38
2022-08-28T23:48:33.620Z,4.45
2022-08-28T23:51:01.995Z,5.20
2022-08-28T23:53:29.679Z,4.90
2022-08-28T23:55:57.408Z,4.90
2022-08-28T23:58:31.842Z,4.70
